Dorchester, New Hampshire
Current Conditions -  °F | °C
As of 7:15 PM on Saturday 25 Oct 2014 (Local Time) from K1P1 Reporting Station
Light Rain Light Rain  
Wind Chill: 53°   Ceiling: 9000
Heat Index: 53°   Visibility: 10mi
Dew Point: 48°   Wind: 0mph
Humidity: 82%   Direction: NA
Pressure: 29.55"   Gusts: NA
Location:  43.7922°N, 71.8971°W
Report Text: K1P1 252315Z AUTO 00000KT 10SM -RA BKN090 OVC110 12/09 A2955 RMK AO2 T01180088
Loading
Personal Weather Stations






























Interactive Weather Map New forecast layout! Learn more

10-Day Weather Forecast

Advertisements
Track Severe Weather on mobile